Sanko Maru — JG5227 — position and weather

sailwx.info

Track history (hours):
 
Tides and Currents Weather Stations Pressure Air Temp Water Temp Dewpoint Dewpoint Depression Visibility Wind Speed Wind Dir Waves Ship Positions

Sanko Maru

Last reported at 2017-Dec-18 21:35 UTC. Time now 2017-Dec-18 22:41 UTC.
Position N 35°31' E 139°51'.

Length 104 m; draft 6.5 m.

Type: Ship (hazmat cat A). MMSI: 431100146.

Date/timePositionNaut miles runAvg speedWind from/ knotsBaromVisibWave heightAir tempDewpointWater temp
2017-Dec-18 21:35N 35°31' E 139°51'0 0.1
2017-Dec-18 20:38N 35°31' E 139°51'0 0.0
2017-Dec-18 20:29N 35°31' E 139°51'0 0.0
2017-Dec-18 19:59N 35°31' E 139°51'0 0.0
2017-Dec-18 19:26N 35°31' E 139°51'0 0.0
2017-Dec-18 18:59N 35°31' E 139°51'0 0.0
2017-Dec-18 18:29N 35°31' E 139°51'0 0.0
2017-Dec-18 17:59N 35°31' E 139°51'0 0.0
2017-Dec-18 17:20N 35°31' E 139°51'0 0.1
2017-Dec-18 16:53N 35°31' E 139°51'0 0.1
2017-Dec-18 16:29N 35°31' E 139°51'0 0.1
2017-Dec-18 15:56N 35°31' E 139°51'0 0.1
2017-Dec-18 15:29N 35°31' E 139°51'0 0.1
2017-Dec-18 14:56N 35°31' E 139°51'0 0.0
2017-Dec-18 14:29N 35°31' E 139°51'0 0.0
2017-Dec-18 13:56N 35°31' E 139°51'0 0.0
2017-Dec-18 13:29N 35°31' E 139°51'0 0.0
2017-Dec-18 12:59N 35°31' E 139°51'0 0.0
2017-Dec-18 12:26N 35°31' E 139°51'0 0.1
2017-Dec-18 11:32N 35°31' E 139°51'0 0.0
2017-Dec-18 11:26N 35°31' E 139°51'0 0.0
2017-Dec-18 10:41N 35°31' E 139°51'0 0.0
2017-Dec-18 10:20N 35°31' E 139°51'0 0.0
2017-Dec-18 09:56N 35°31' E 139°51'0 0.1
2017-Dec-18 09:29N 35°31' E 139°51'0 0.1
2017-Dec-18 08:56N 35°31' E 139°51'0 0.1
2017-Dec-18 08:17N 35°31' E 139°51'0 0.0
2017-Dec-18 07:44N 35°31' E 139°51'0 0.0
2017-Dec-18 06:14N 35°31' E 139°51'0 0.0
2017-Dec-18 04:35N 35°31' E 139°51'0 0.0
2017-Dec-18 04:17N 35°31' E 139°51'1 2.6
2017-Dec-18 04:00N 35°31' E 139°52'611.4
2017-Dec-18 03:30N 35°30' E 139°58'2 0.4
2017-Dec-17 22:00N 35°29' E 140°01'1 2.9
2017-Dec-17 21:29N 35°30' E 139°59'0 0.0
2017-Dec-17 20:59N 35°30' E 139°59'0 0.0
2017-Dec-17 20:26N 35°30' E 139°59'0 0.0
2017-Dec-17 19:56N 35°30' E 139°59'0 0.0
2017-Dec-17 19:29N 35°30' E 139°59'0 0.0
2017-Dec-17 18:56N 35°30' E 139°59'0 0.0
2017-Dec-17 18:29N 35°30' E 139°59'0 0.0
2017-Dec-17 17:56N 35°30' E 139°59'0 0.0
2017-Dec-17 17:26N 35°30' E 139°59'0 0.1
2017-Dec-17 16:59N 35°30' E 139°60'0 0.1
2017-Dec-17 16:26N 35°30' E 139°59'0 0.1
2017-Dec-17 15:59N 35°30' E 139°60'0 0.0
2017-Dec-17 15:29N 35°30' E 139°60'0 0.0
2017-Dec-17 14:56N 35°30' E 139°60'0 0.1
2017-Dec-17 14:29N 35°30' E 139°59'0 0.1
2017-Dec-17 13:59N 35°30' E 139°60'0 0.1
2017-Dec-17 13:29N 35°30' E 139°59'0 0.0
2017-Dec-17 12:56N 35°30' E 139°59'0 0.0
2017-Dec-17 12:29N 35°30' E 139°59'0 0.0
2017-Dec-17 11:59N 35°30' E 139°59'0 0.0
2017-Dec-17 11:26N 35°30' E 139°59'0 0.0
2017-Dec-17 10:59N 35°30' E 139°59'0 0.0
2017-Dec-17 10:29N 35°30' E 139°59'0 0.0
2017-Dec-17 09:56N 35°30' E 139°59'0 0.0
2017-Dec-17 09:29N 35°30' E 139°59'0 0.0
2017-Dec-17 08:56N 35°30' E 139°59'0 0.0
2017-Dec-17 08:29N 35°30' E 139°59'0 0.1
2017-Dec-17 07:59N 35°30' E 139°60'0 0.0
2017-Dec-17 07:26N 35°30' E 139°60'0 0.0
2017-Dec-17 06:59N 35°30' E 139°60'0 0.0
2017-Dec-17 06:29N 35°30' E 139°60'0 0.0
2017-Dec-17 05:59N 35°30' E 139°60'0 0.1
2017-Dec-17 05:23N 35°30' E 139°59'0 0.0
2017-Dec-17 04:59N 35°30' E 139°59'1 1.5
2017-Dec-17 04:30N 35°30' E 139°59'612.7
2017-Dec-17 04:00N 35°30' E 139°51'3 5.6
2017-Dec-17 03:30N 35°32' E 139°48'0 0.0
2017-Dec-17 03:00N 35°32' E 139°48'0 0.0
2017-Dec-17 02:30N 35°32' E 139°48'0 0.0
2017-Dec-17 02:00N 35°32' E 139°48'0 0.0
2017-Dec-17 01:30N 35°32' E 139°48'0 0.0
2017-Dec-17 01:00N 35°32' E 139°48'0 0.0
2017-Dec-17 00:30N 35°32' E 139°48'0 0.1
2017-Dec-17 00:00N 35°32' E 139°48'2 4.0
2017-Dec-16 23:30N 35°30' E 139°50'2 4.6
2017-Dec-16 23:00N 35°29' E 139°52'3 5.4
2017-Dec-16 22:30N 35°27' E 139°49'4 9.0
2017-Dec-16 22:00N 35°23' E 139°46'510.3
2017-Dec-16 21:30N 35°18' E 139°44'510.6
2017-Dec-16 21:00N 35°14' E 139°47'611.3
2017-Dec-16 20:30N 35°08' E 139°45'611.9
2017-Dec-16 20:00N 35°03' E 139°42'612.8
2017-Dec-16 19:30N 34°59' E 139°35'713.5
2017-Dec-16 19:00N 34°55' E 139°28'713.9
2017-Dec-16 18:29N 34°51' E 139°21'613.1
2017-Dec-16 18:00N 34°47' E 139°16'812.6
2017-Dec-16 17:24N 34°42' E 139°09'512.5
2017-Dec-16 17:00N 34°38' E 139°05'611.6
2017-Dec-16 16:30N 34°34' E 138°59'612.8
2017-Dec-16 16:00N 34°33' E 138°52'713.7
2017-Dec-16 15:30N 34°32' E 138°44'612.8
2017-Dec-16 15:00N 34°32' E 138°36'613.0
2017-Dec-16 14:30N 34°32' E 138°28'713.5
2017-Dec-16 14:00N 34°33' E 138°20'814.2
2017-Dec-16 13:27N 34°33' E 138°11'813.3
2017-Dec-16 12:50N 34°35' E 138°01'3413.1
2017-Dec-16 10:16N 34°36' E 137°20'413.4
2017-Dec-16 09:58N 34°35' E 137°15'1212.5
2017-Dec-16 08:59N 34°34' E 137°00'613.2
2017-Dec-16 08:30N 34°38' E 136°54'613.0
2017-Dec-16 08:00N 34°42' E 136°48'613.0
2017-Dec-16 07:31N 34°47' E 136°45'612.3
2017-Dec-16 07:01N 34°53' E 136°41'1 1.9
2017-Dec-16 06:28N 34°54' E 136°41'0 0.0
2017-Dec-16 05:58N 34°54' E 136°41'0 0.0
2017-Dec-16 05:28N 34°54' E 136°41'0 0.1
2017-Dec-16 04:58N 34°54' E 136°40'0 0.0
2017-Dec-16 04:28N 34°54' E 136°40'0 0.0
2017-Dec-16 03:58N 34°54' E 136°40'0 0.0
2017-Dec-16 03:28N 34°54' E 136°40'0 0.0
2017-Dec-16 02:55N 34°54' E 136°40'0 0.1
2017-Dec-16 02:28N 34°54' E 136°40'0 0.0
2017-Dec-16 01:58N 34°54' E 136°40'0 0.0
2017-Dec-16 01:28N 34°54' E 136°40'0 0.0
2017-Dec-16 00:52N 34°54' E 136°40'0 0.0
2017-Dec-16 00:28N 34°54' E 136°40'0 0.0
2017-Dec-15 23:58N 34°54' E 136°40'0 0.0
2017-Dec-15 23:28N 34°54' E 136°40'0 0.0
2017-Dec-15 22:58N 34°54' E 136°40'0 0.0
2017-Dec-15 22:28N 34°54' E 136°40'0 0.0
2017-Dec-15 21:58N 34°54' E 136°40'0 0.1
2017-Dec-15 21:28N 34°54' E 136°40'0 0.0
2017-Dec-15 20:58N 34°54' E 136°40'0 0.0
2017-Dec-15 20:28N 34°54' E 136°40'0 0.0
2017-Dec-15 19:58N 34°54' E 136°40'0 0.0
2017-Dec-15 19:28N 34°54' E 136°40'0 0.0
2017-Dec-15 18:58N 34°54' E 136°40'0 0.0
2017-Dec-15 18:28N 34°54' E 136°40'0 0.2
2017-Dec-15 18:00N 34°54' E 136°40'3 6.8
2017-Dec-15 17:31N 34°57' E 136°38'0 0.3
2017-Dec-15 16:58N 34°57' E 136°38'0 0.0
2017-Dec-15 16:28N 34°57' E 136°38'0 0.0
2017-Dec-15 15:58N 34°57' E 136°38'0 0.0
2017-Dec-15 15:25N 34°57' E 136°38'0 0.0
2017-Dec-15 14:58N 34°57' E 136°38'0 0.0
2017-Dec-15 14:28N 34°57' E 136°38'0 0.0
2017-Dec-15 13:58N 34°57' E 136°38'0 0.0
2017-Dec-15 13:28N 34°57' E 136°38'0 0.0
2017-Dec-15 12:58N 34°57' E 136°38'0 0.0
2017-Dec-15 12:28N 34°57' E 136°38'0 0.0
2017-Dec-15 11:58N 34°57' E 136°38'0 0.0
2017-Dec-15 11:28N 34°57' E 136°38'0 0.0
2017-Dec-15 10:55N 34°57' E 136°38'0 0.0
2017-Dec-15 10:28N 34°57' E 136°38'0 0.0
2017-Dec-15 09:58N 34°57' E 136°38'0 0.0
2017-Dec-15 09:28N 34°57' E 136°38'0 0.0
2017-Dec-15 08:58N 34°57' E 136°38'0 0.0
2017-Dec-15 08:30N 34°57' E 136°38'2 5.0
2017-Dec-15 08:00N 34°56' E 136°41'0 0.2
2017-Dec-15 07:29N 34°56' E 136°41'0 0.1
2017-Dec-15 06:59N 34°56' E 136°41'0 0.1
2017-Dec-15 06:31N 34°56' E 136°41'0 0.0
2017-Dec-15 06:00N 34°56' E 136°41'0 0.1
2017-Dec-15 05:31N 34°56' E 136°41'0 0.4
2017-Dec-15 05:00N 34°56' E 136°41'612.5
2017-Dec-15 04:30N 34°51' E 136°45'3 6.8
2017-Dec-15 04:00N 34°51' E 136°50'0 0.2
2017-Dec-15 02:28N 34°51' E 136°49'0 0.0
2017-Dec-15 00:58N 34°51' E 136°49'0 0.0
2017-Dec-15 00:28N 34°51' E 136°49'7 1.2
2017-Dec-14 18:29N 34°56' E 136°43'0 0.0
2017-Dec-14 17:59N 34°56' E 136°43'0 0.0
2017-Dec-14 17:29N 34°56' E 136°43'0 0.0
2017-Dec-14 16:59N 34°56' E 136°43'0 0.0
2017-Dec-14 16:29N 34°56' E 136°43'4 8.1
2017-Dec-14 16:00N 34°57' E 136°39'0 0.0
2017-Dec-14 15:00N 34°57' E 136°38'0 0.0
2017-Dec-14 14:27N 34°57' E 136°38'0 0.0
2017-Dec-14 14:00N 34°57' E 136°38'0 0.0
2017-Dec-14 13:30N 34°57' E 136°38'0 0.0
2017-Dec-14 12:57N 34°57' E 136°38'0 0.0
2017-Dec-14 12:27N 34°57' E 136°38'0 0.0
2017-Dec-14 12:00N 34°57' E 136°38'0 0.0
2017-Dec-14 11:30N 34°57' E 136°38'0 0.0
2017-Dec-14 11:00N 34°57' E 136°38'0 0.0
2017-Dec-14 10:27N 34°57' E 136°38'0 0.0
2017-Dec-14 10:00N 34°57' E 136°38'0 0.0
2017-Dec-14 09:30N 34°57' E 136°38'0 0.0
2017-Dec-14 09:00N 34°57' E 136°38'0 0.0
2017-Dec-14 08:27N 34°57' E 136°38'0 0.1
2017-Dec-14 08:00N 34°57' E 136°39'3 5.0
2017-Dec-14 07:30N 34°58' E 136°41'1 2.7
2017-Dec-14 06:59N 34°56' E 136°41'0 0.0
2017-Dec-14 06:26N 34°56' E 136°41'0 0.0
2017-Dec-14 05:59N 34°56' E 136°41'0 0.0
2017-Dec-14 05:29N 34°56' E 136°41'0 0.0
2017-Dec-14 04:59N 34°56' E 136°41'0 0.1
2017-Dec-14 04:29N 34°56' E 136°41'0 0.1
2017-Dec-14 03:59N 34°56' E 136°41'0 0.0
2017-Dec-14 03:29N 34°56' E 136°41'0 0.0
2017-Dec-14 02:59N 34°56' E 136°41'0 0.0
2017-Dec-14 02:29N 34°56' E 136°41'0 0.0
2017-Dec-14 01:59N 34°56' E 136°41'0 0.0
2017-Dec-14 01:29N 34°56' E 136°41'0 0.0
2017-Dec-14 00:59N 34°56' E 136°41'0 0.0
2017-Dec-14 00:29N 34°56' E 136°41'0 0.0
2017-Dec-13 23:56N 34°56' E 136°41'0 0.0
2017-Dec-13 23:23N 34°56' E 136°41'0 0.0
2017-Dec-13 22:59N 34°56' E 136°41'0 0.0
2017-Dec-13 22:29N 34°56' E 136°41'0 0.0
2017-Dec-13 21:59N 34°56' E 136°41'0 0.0
2017-Dec-13 21:29N 34°56' E 136°41'0 0.0
2017-Dec-13 20:59N 34°56' E 136°41'0 0.0
2017-Dec-13 20:29N 34°56' E 136°41'0 0.0
2017-Dec-13 19:59N 34°56' E 136°41'2 5.0
2017-Dec-13 19:30N 34°54' E 136°43'612.6
2017-Dec-13 19:00N 34°49' E 136°46'612.5
2017-Dec-13 18:30N 34°43' E 136°50'2011.2
2017-Dec-13 16:44N 34°34' E 137°11'312.6
2017-Dec-13 16:30N 34°35' E 137°15'2611.7
2017-Dec-13 14:16N 34°37' E 137°46'310.9
2017-Dec-13 13:59N 34°36' E 137°50'510.8
2017-Dec-13 13:28N 34°36' E 137°57'611.0
2017-Dec-13 12:53N 34°35' E 138°05'510.9
2017-Dec-13 12:23N 34°34' E 138°11'410.5
2017-Dec-13 12:00N 34°34' E 138°16'611.1
2017-Dec-13 11:28N 34°37' E 138°23'510.5
2017-Dec-13 11:00N 34°37' E 138°28'510.0
2017-Dec-13 10:27N 34°36' E 138°35'5 9.9
2017-Dec-13 10:00N 34°36' E 138°41'4 8.8
2017-Dec-13 09:30N 34°36' E 138°46'3 6.5
2017-Dec-13 09:00N 34°35' E 138°50'4 7.5
2017-Dec-13 08:30N 34°36' E 138°54'3 6.9
2017-Dec-13 08:00N 34°37' E 138°58'611.4
2017-Dec-13 07:30N 34°41' E 139°03'712.9
2017-Dec-13 07:00N 34°47' E 139°07'713.3
2017-Dec-13 06:27N 34°52' E 139°13'612.9
2017-Dec-13 06:00N 34°56' E 139°18'713.1
2017-Dec-13 05:30N 34°60' E 139°25'713.1
2017-Dec-13 05:00N 35°03' E 139°32'713.6
2017-Dec-13 04:30N 35°06' E 139°39'713.3
2017-Dec-13 04:00N 35°11' E 139°45'612.4
2017-Dec-13 03:30N 35°17' E 139°45'612.8
2017-Dec-13 03:00N 35°23' E 139°42'713.4
2017-Dec-13 02:30N 35°28' E 139°47'4 6.9
2017-Dec-13 01:58N 35°32' E 139°48'0 0.0
2017-Dec-13 01:28N 35°32' E 139°48'0 0.0
2017-Dec-13 00:58N 35°32' E 139°48'0 0.0
2017-Dec-13 00:28N 35°32' E 139°48'0 0.0
2017-Dec-12 23:58N 35°32' E 139°48'0 0.0
2017-Dec-12 23:19N 35°32' E 139°48'0 0.0
2017-Dec-12 22:58N 35°32' E 139°48'0 0.1
2017-Dec-12 22:31N 35°32' E 139°48'2 4.1
2017-Dec-12 22:01N 35°31' E 139°50'0 0.1
2017-Dec-12 21:20N 35°31' E 139°50'0 0.0
2017-Dec-12 20:56N 35°31' E 139°50'0 0.0
2017-Dec-12 20:26N 35°31' E 139°50'0 0.5
2017-Dec-12 20:00N 35°31' E 139°50'511.0
2017-Dec-12 19:30N 35°26' E 139°47'611.5
2017-Dec-12 19:00N 35°21' E 139°45'5 9.2
2017-Dec-12 18:31N 35°16' E 139°46'611.4
2017-Dec-12 18:00N 35°11' E 139°46'612.1
2017-Dec-12 17:30N 35°05' E 139°44'612.0
2017-Dec-12 17:00N 35°01' E 139°38'612.9
2017-Dec-12 16:30N 34°57' E 139°32'713.6
2017-Dec-12 16:00N 34°53' E 139°25'714.1
2017-Dec-12 15:31N 34°49' E 139°19'713.1
2017-Dec-12 14:59N 34°44' E 139°13'712.6
2017-Dec-12 14:27N 34°40' E 139°06'611.8
2017-Dec-12 13:58N 34°36' E 139°01'611.9
2017-Dec-12 13:30N 34°33' E 138°56'713.3
2017-Dec-12 13:00N 34°33' E 138°48'713.3
2017-Dec-12 12:28N 34°33' E 138°39'713.1
2017-Dec-12 11:54N 34°32' E 138°30'712.8
2017-Dec-12 11:22N 34°33' E 138°22'512.3
2017-Dec-12 10:59N 34°33' E 138°16'1313.1
2017-Dec-12 09:58N 34°36' E 138°00'3313.3
2017-Dec-12 07:28N 34°36' E 137°20'613.1
2017-Dec-12 07:00N 34°34' E 137°13'1511.9
2017-Dec-12 05:44N 34°37' E 136°55'312.4
2017-Dec-12 05:30N 34°39' E 136°52'612.2
2017-Dec-12 05:00N 34°44' E 136°47'611.9
2017-Dec-12 04:30N 34°49' E 136°44'510.7
2017-Dec-12 04:00N 34°54' E 136°41'0 0.2
2017-Dec-12 03:25N 34°54' E 136°41'0 0.0
2017-Dec-12 02:58N 34°54' E 136°41'0 0.0
2017-Dec-12 02:25N 34°54' E 136°41'0 0.0
2017-Dec-12 01:58N 34°54' E 136°41'0 0.0
2017-Dec-12 01:28N 34°54' E 136°41'0 0.0
2017-Dec-12 00:58N 34°54' E 136°41'0 0.0
2017-Dec-12 00:25N 34°54' E 136°41'0 0.0
2017-Dec-11 23:55N 34°54' E 136°41'0 0.0
2017-Dec-11 23:25N 34°54' E 136°41'0 0.0
2017-Dec-11 22:55N 34°54' E 136°41'0 0.0
2017-Dec-11 22:19N 34°54' E 136°41'0 0.0
2017-Dec-11 21:55N 34°54' E 136°41'0 0.0
2017-Dec-11 21:25N 34°54' E 136°41'0 0.0
2017-Dec-11 20:55N 34°54' E 136°41'0 0.0
2017-Dec-11 20:25N 34°54' E 136°41'0 0.0
2017-Dec-11 19:58N 34°54' E 136°41'0 0.0
2017-Dec-11 19:25N 34°54' E 136°41'0 0.0
2017-Dec-11 18:58N 34°54' E 136°41'0 0.0
2017-Dec-11 18:28N 34°54' E 136°41'0 0.0
2017-Dec-11 17:55N 34°54' E 136°41'0 0.0
2017-Dec-11 17:25N 34°54' E 136°41'0 0.0
2017-Dec-11 16:55N 34°54' E 136°41'0 0.1
2017-Dec-11 16:28N 34°54' E 136°41'0 0.0
2017-Dec-11 15:55N 34°54' E 136°41'0 0.0
2017-Dec-11 15:28N 34°54' E 136°41'0 0.0
2017-Dec-11 14:55N 34°54' E 136°41'0 0.0
2017-Dec-11 14:28N 34°54' E 136°41'0 0.0
2017-Dec-11 13:58N 34°54' E 136°41'0 0.0
2017-Dec-11 13:25N 34°54' E 136°41'0 0.0
2017-Dec-11 12:55N 34°54' E 136°41'0 0.0
2017-Dec-11 12:25N 34°54' E 136°41'0 0.0
2017-Dec-11 11:58N 34°54' E 136°41'0 0.0
2017-Dec-11 11:28N 34°54' E 136°41'0 0.0
2017-Dec-11 10:55N 34°54' E 136°41'0 0.0
2017-Dec-11 10:25N 34°54' E 136°41'0 0.0
2017-Dec-11 09:58N 34°54' E 136°41'0 0.0
2017-Dec-11 09:28N 34°54' E 136°41'0 0.0
2017-Dec-11 08:55N 34°54' E 136°41'0 0.0
2017-Dec-11 08:28N 34°54' E 136°41'3 6.5
2017-Dec-11 08:01N 34°57' E 136°41'2 3.1
2017-Dec-11 07:26N 34°57' E 136°38'0 0.0
2017-Dec-11 06:59N 34°57' E 136°38'0 0.0
2017-Dec-11 06:29N 34°57' E 136°38'0 0.0
2017-Dec-11 05:59N 34°57' E 136°38'0 0.0
2017-Dec-11 05:29N 34°57' E 136°38'0 0.0
2017-Dec-11 04:59N 34°57' E 136°38'0 0.0
2017-Dec-11 04:29N 34°57' E 136°38'0 0.0
2017-Dec-11 03:59N 34°57' E 136°38'0 0.0
2017-Dec-11 03:26N 34°57' E 136°38'0 0.0
2017-Dec-11 02:59N 34°57' E 136°38'0 0.0
2017-Dec-11 02:29N 34°57' E 136°38'0 0.0
2017-Dec-11 01:59N 34°57' E 136°38'0 0.0
2017-Dec-11 01:29N 34°57' E 136°38'0 0.0
2017-Dec-11 00:59N 34°57' E 136°38'0 0.0
2017-Dec-11 00:23N 34°57' E 136°38'0 0.0
2017-Dec-10 23:59N 34°57' E 136°38'0 0.0
2017-Dec-10 23:29N 34°57' E 136°38'0 0.0
2017-Dec-10 22:59N 34°57' E 136°38'0 0.0
2017-Dec-10 22:29N 34°57' E 136°38'3 5.4
2017-Dec-10 22:01N 34°56' E 136°41'0 0.4
2017-Dec-10 21:29N 34°56' E 136°41'0 0.0
2017-Dec-10 20:59N 34°56' E 136°41'0 0.0
2017-Dec-10 20:29N 34°56' E 136°41'0 0.0
2017-Dec-10 19:59N 34°56' E 136°41'0 0.0
2017-Dec-10 19:29N 34°56' E 136°41'0 0.0
2017-Dec-10 18:59N 34°56' E 136°41'0 0.0
2017-Dec-10 18:29N 34°56' E 136°41'3 7.0
2017-Dec-10 18:01N 34°53' E 136°43'713.0
2017-Dec-10 17:30N 34°48' E 136°47'612.7
2017-Dec-10 17:00N 34°42' E 136°51'1911.4
2017-Dec-10 15:19N 34°34' E 137°12'5112.7
2017-Dec-10 11:17N 34°32' E 138°14'1212.5
2017-Dec-10 10:20N 34°33' E 138°28'412.6
2017-Dec-10 10:00N 34°33' E 138°34'612.6
2017-Dec-10 09:30N 34°34' E 138°41'712.5
2017-Dec-10 08:58N 34°34' E 138°49'511.8
2017-Dec-10 08:30N 34°36' E 138°56'611.7
2017-Dec-10 07:58N 34°40' E 139°01'913.4
2017-Dec-10 07:19N 34°47' E 139°07'1012.7
2017-Dec-10 06:34N 34°55' E 139°14'112.8
2017-Dec-10 06:29N 34°55' E 139°15'612.5
2017-Dec-10 06:00N 34°58' E 139°21'611.0
2017-Dec-10 05:30N 35°01' E 139°28'611.4
2017-Dec-10 05:00N 35°03' E 139°34'611.4
2017-Dec-10 04:31N 35°06' E 139°40'611.7
2017-Dec-10 04:00N 35°10' E 139°45'611.9
2017-Dec-10 03:30N 35°16' E 139°46'613.0
2017-Dec-10 03:00N 35°22' E 139°42'612.8
2017-Dec-10 02:30N 35°27' E 139°47'5 9.2
2017-Dec-10 02:01N 35°32' E 139°48'0 0.0
2017-Dec-10 01:28N 35°32' E 139°48'0 0.0
2017-Dec-10 00:55N 35°32' E 139°48'0 0.0
2017-Dec-10 00:28N 35°32' E 139°48'0 0.0
2017-Dec-09 23:55N 35°32' E 139°48'0 0.0
2017-Dec-09 23:28N 35°32' E 139°48'0 0.0
2017-Dec-09 22:58N 35°32' E 139°48'0 0.1
2017-Dec-09 22:30N 35°32' E 139°48'2 4.2
2017-Dec-09 22:00N 35°31' E 139°50'0 0.1
2017-Dec-09 21:30N 35°31' E 139°50'0 0.0
2017-Dec-09 21:00N 35°31' E 139°50'0 0.0
2017-Dec-09 20:30N 35°31' E 139°50'0 0.1
2017-Dec-09 20:00N 35°31' E 139°50'0 0.0
2017-Dec-09 19:27N 35°31' E 139°50'0 0.0
2017-Dec-09 19:00N 35°31' E 139°50'0 0.0
2017-Dec-09 18:30N 35°31' E 139°50'0 0.0
2017-Dec-09 18:00N 35°31' E 139°50'0 0.1
2017-Dec-09 17:30N 35°31' E 139°50'0 0.1
2017-Dec-09 17:00N 35°31' E 139°50'0 0.0
2017-Dec-09 16:30N 35°31' E 139°50'0 0.0
2017-Dec-09 16:00N 35°31' E 139°50'0 0.0
2017-Dec-09 15:30N 35°31' E 139°50'0 0.0
2017-Dec-09 15:00N 35°31' E 139°50'0 0.0
2017-Dec-09 14:30N 35°31' E 139°50'0 0.1
2017-Dec-09 13:36N 35°31' E 139°50'0 0.0
2017-Dec-09 13:09N 35°31' E 139°50'0 0.0
2017-Dec-09 12:51N 35°31' E 139°50'1 3.4
2017-Dec-09 12:30N 35°31' E 139°52'612.1
2017-Dec-09 12:00N 35°30' E 139°59'2 2.7
2017-Dec-09 11:23N 35°29' E 140°01'0 0.0
2017-Dec-09 10:56N 35°29' E 140°01'0 0.0
2017-Dec-09 10:26N 35°29' E 140°01'0 0.0
2017-Dec-09 09:47N 35°29' E 140°01'0 0.0
2017-Dec-09 08:32N 35°29' E 140°01'0 0.0
2017-Dec-09 08:20N 35°29' E 140°01'0 0.0
2017-Dec-09 06:44N 35°29' E 140°01'0 0.0
2017-Dec-09 06:21N 35°29' E 140°01'1 4.3
2017-Dec-09 06:00N 35°30' E 139°60'510.8
2017-Dec-09 05:30N 35°35' E 140°03'2 3.3
2017-Dec-09 04:59N 35°36' E 140°05'0 0.0
2017-Dec-09 04:29N 35°36' E 140°05'0 0.0
2017-Dec-09 03:59N 35°36' E 140°05'0 0.0
2017-Dec-09 03:29N 35°36' E 140°05'0 0.0
2017-Dec-09 02:59N 35°36' E 140°05'0 0.0
2017-Dec-09 02:29N 35°36' E 140°05'0 0.0
2017-Dec-09 01:59N 35°36' E 140°05'0 0.0
2017-Dec-09 01:29N 35°36' E 140°05'0 0.0
2017-Dec-09 00:59N 35°36' E 140°05'0 0.0
2017-Dec-09 00:29N 35°36' E 140°05'0 0.0
2017-Dec-08 23:59N 35°36' E 140°05'0 0.0
2017-Dec-08 23:29N 35°36' E 140°05'1 2.6
2017-Dec-08 22:59N 35°35' E 140°03'0 0.1
2017-Dec-08 22:29N 35°35' E 140°03'0 0.0
2017-Dec-08 21:59N 35°35' E 140°03'  
Track history (hours):
 
Tides and Currents Weather Stations Pressure Air Temp Water Temp Dewpoint Dewpoint Depression Visibility Wind Speed Wind Dir Waves Ship Positions

Sanko Maru

Last reported at 2017-Dec-18 21:35 UTC. Time now 2017-Dec-18 22:41 UTC.
Position N 35°31' E 139°51'.

Length 104 m; draft 6.5 m.

Type: Ship (hazmat cat A). MMSI: 431100146.

Date/timePositionNaut miles runAvg speedWind from/ knotsBaromVisibWave heightAir tempDewpointWater temp
2017-Dec-18 21:35N 35°31' E 139°51'0 0.1
2017-Dec-18 20:38N 35°31' E 139°51'0 0.0
2017-Dec-18 20:29N 35°31' E 139°51'0 0.0
2017-Dec-18 19:59N 35°31' E 139°51'0 0.0
2017-Dec-18 19:26N 35°31' E 139°51'0 0.0
2017-Dec-18 18:59N 35°31' E 139°51'0 0.0
2017-Dec-18 18:29N 35°31' E 139°51'0 0.0
2017-Dec-18 17:59N 35°31' E 139°51'0 0.0
2017-Dec-18 17:20N 35°31' E 139°51'0 0.1
2017-Dec-18 16:53N 35°31' E 139°51'0 0.1
2017-Dec-18 16:29N 35°31' E 139°51'0 0.1
2017-Dec-18 15:56N 35°31' E 139°51'0 0.1
2017-Dec-18 15:29N 35°31' E 139°51'0 0.1
2017-Dec-18 14:56N 35°31' E 139°51'0 0.0
2017-Dec-18 14:29N 35°31' E 139°51'0 0.0
2017-Dec-18 13:56N 35°31' E 139°51'0 0.0
2017-Dec-18 13:29N 35°31' E 139°51'0 0.0
2017-Dec-18 12:59N 35°31' E 139°51'0 0.0
2017-Dec-18 12:26N 35°31' E 139°51'0 0.1
2017-Dec-18 11:32N 35°31' E 139°51'0 0.0
2017-Dec-18 11:26N 35°31' E 139°51'0 0.0
2017-Dec-18 10:41N 35°31' E 139°51'0 0.0
2017-Dec-18 10:20N 35°31' E 139°51'0 0.0
2017-Dec-18 09:56N 35°31' E 139°51'0 0.1
2017-Dec-18 09:29N 35°31' E 139°51'0 0.1
2017-Dec-18 08:56N 35°31' E 139°51'0 0.1
2017-Dec-18 08:17N 35°31' E 139°51'0 0.0
2017-Dec-18 07:44N 35°31' E 139°51'0 0.0
2017-Dec-18 06:14N 35°31' E 139°51'0 0.0
2017-Dec-18 04:35N 35°31' E 139°51'0 0.0
2017-Dec-18 04:17N 35°31' E 139°51'1 2.6
2017-Dec-18 04:00N 35°31' E 139°52'611.4
2017-Dec-18 03:30N 35°30' E 139°58'2 0.4
2017-Dec-17 22:00N 35°29' E 140°01'1 2.9
2017-Dec-17 21:29N 35°30' E 139°59'0 0.0
2017-Dec-17 20:59N 35°30' E 139°59'0 0.0
2017-Dec-17 20:26N 35°30' E 139°59'0 0.0
2017-Dec-17 19:56N 35°30' E 139°59'0 0.0
2017-Dec-17 19:29N 35°30' E 139°59'0 0.0
2017-Dec-17 18:56N 35°30' E 139°59'0 0.0
2017-Dec-17 18:29N 35°30' E 139°59'0 0.0
2017-Dec-17 17:56N 35°30' E 139°59'0 0.0
2017-Dec-17 17:26N 35°30' E 139°59'0 0.1
2017-Dec-17 16:59N 35°30' E 139°60'0 0.1
2017-Dec-17 16:26N 35°30' E 139°59'0 0.1
2017-Dec-17 15:59N 35°30' E 139°60'0 0.0
2017-Dec-17 15:29N 35°30' E 139°60'0 0.0
2017-Dec-17 14:56N 35°30' E 139°60'0 0.1
2017-Dec-17 14:29N 35°30' E 139°59'0 0.1
2017-Dec-17 13:59N 35°30' E 139°60'0 0.1
2017-Dec-17 13:29N 35°30' E 139°59'0 0.0
2017-Dec-17 12:56N 35°30' E 139°59'0 0.0
2017-Dec-17 12:29N 35°30' E 139°59'0 0.0
2017-Dec-17 11:59N 35°30' E 139°59'0 0.0
2017-Dec-17 11:26N 35°30' E 139°59'0 0.0
2017-Dec-17 10:59N 35°30' E 139°59'0 0.0
2017-Dec-17 10:29N 35°30' E 139°59'0 0.0
2017-Dec-17 09:56N 35°30' E 139°59'0 0.0
2017-Dec-17 09:29N 35°30' E 139°59'0 0.0
2017-Dec-17 08:56N 35°30' E 139°59'0 0.0
2017-Dec-17 08:29N 35°30' E 139°59'0 0.1
2017-Dec-17 07:59N 35°30' E 139°60'0 0.0
2017-Dec-17 07:26N 35°30' E 139°60'0 0.0
2017-Dec-17 06:59N 35°30' E 139°60'0 0.0
2017-Dec-17 06:29N 35°30' E 139°60'0 0.0
2017-Dec-17 05:59N 35°30' E 139°60'0 0.1
2017-Dec-17 05:23N 35°30' E 139°59'0 0.0
2017-Dec-17 04:59N 35°30' E 139°59'1 1.5
2017-Dec-17 04:30N 35°30' E 139°59'612.7
2017-Dec-17 04:00N 35°30' E 139°51'3 5.6
2017-Dec-17 03:30N 35°32' E 139°48'0 0.0
2017-Dec-17 03:00N 35°32' E 139°48'0 0.0
2017-Dec-17 02:30N 35°32' E 139°48'0 0.0
2017-Dec-17 02:00N 35°32' E 139°48'0 0.0
2017-Dec-17 01:30N 35°32' E 139°48'0 0.0
2017-Dec-17 01:00N 35°32' E 139°48'0 0.0
2017-Dec-17 00:30N 35°32' E 139°48'0 0.1
2017-Dec-17 00:00N 35°32' E 139°48'2 4.0
2017-Dec-16 23:30N 35°30' E 139°50'2 4.6
2017-Dec-16 23:00N 35°29' E 139°52'3 5.4
2017-Dec-16 22:30N 35°27' E 139°49'4 9.0
2017-Dec-16 22:00N 35°23' E 139°46'510.3
2017-Dec-16 21:30N 35°18' E 139°44'510.6
2017-Dec-16 21:00N 35°14' E 139°47'611.3
2017-Dec-16 20:30N 35°08' E 139°45'611.9
2017-Dec-16 20:00N 35°03' E 139°42'612.8
2017-Dec-16 19:30N 34°59' E 139°35'713.5
2017-Dec-16 19:00N 34°55' E 139°28'713.9
2017-Dec-16 18:29N 34°51' E 139°21'613.1
2017-Dec-16 18:00N 34°47' E 139°16'812.6
2017-Dec-16 17:24N 34°42' E 139°09'512.5
2017-Dec-16 17:00N 34°38' E 139°05'611.6
2017-Dec-16 16:30N 34°34' E 138°59'612.8
2017-Dec-16 16:00N 34°33' E 138°52'713.7
2017-Dec-16 15:30N 34°32' E 138°44'612.8
2017-Dec-16 15:00N 34°32' E 138°36'613.0
2017-Dec-16 14:30N 34°32' E 138°28'713.5
2017-Dec-16 14:00N 34°33' E 138°20'814.2
2017-Dec-16 13:27N 34°33' E 138°11'813.3
2017-Dec-16 12:50N 34°35' E 138°01'3413.1
2017-Dec-16 10:16N 34°36' E 137°20'413.4
2017-Dec-16 09:58N 34°35' E 137°15'1212.5
2017-Dec-16 08:59N 34°34' E 137°00'613.2
2017-Dec-16 08:30N 34°38' E 136°54'613.0
2017-Dec-16 08:00N 34°42' E 136°48'613.0
2017-Dec-16 07:31N 34°47' E 136°45'612.3
2017-Dec-16 07:01N 34°53' E 136°41'1 1.9
2017-Dec-16 06:28N 34°54' E 136°41'0 0.0
2017-Dec-16 05:58N 34°54' E 136°41'0 0.0
2017-Dec-16 05:28N 34°54' E 136°41'0 0.1
2017-Dec-16 04:58N 34°54' E 136°40'0 0.0
2017-Dec-16 04:28N 34°54' E 136°40'0 0.0
2017-Dec-16 03:58N 34°54' E 136°40'0 0.0
2017-Dec-16 03:28N 34°54' E 136°40'0 0.0
2017-Dec-16 02:55N 34°54' E 136°40'0 0.1
2017-Dec-16 02:28N 34°54' E 136°40'0 0.0
2017-Dec-16 01:58N 34°54' E 136°40'0 0.0
2017-Dec-16 01:28N 34°54' E 136°40'0 0.0
2017-Dec-16 00:52N 34°54' E 136°40'0 0.0
2017-Dec-16 00:28N 34°54' E 136°40'0 0.0
2017-Dec-15 23:58N 34°54' E 136°40'0 0.0
2017-Dec-15 23:28N 34°54' E 136°40'0 0.0
2017-Dec-15 22:58N 34°54' E 136°40'0 0.0
2017-Dec-15 22:28N 34°54' E 136°40'0 0.0
2017-Dec-15 21:58N 34°54' E 136°40'0 0.1
2017-Dec-15 21:28N 34°54' E 136°40'0 0.0
2017-Dec-15 20:58N 34°54' E 136°40'0 0.0
2017-Dec-15 20:28N 34°54' E 136°40'0 0.0
2017-Dec-15 19:58N 34°54' E 136°40'0 0.0
2017-Dec-15 19:28N 34°54' E 136°40'0 0.0
2017-Dec-15 18:58N 34°54' E 136°40'0 0.0
2017-Dec-15 18:28N 34°54' E 136°40'0 0.2
2017-Dec-15 18:00N 34°54' E 136°40'3 6.8
2017-Dec-15 17:31N 34°57' E 136°38'0 0.3
2017-Dec-15 16:58N 34°57' E 136°38'0 0.0
2017-Dec-15 16:28N 34°57' E 136°38'0 0.0
2017-Dec-15 15:58N 34°57' E 136°38'0 0.0
2017-Dec-15 15:25N 34°57' E 136°38'0 0.0
2017-Dec-15 14:58N 34°57' E 136°38'0 0.0
2017-Dec-15 14:28N 34°57' E 136°38'0 0.0
2017-Dec-15 13:58N 34°57' E 136°38'0 0.0
2017-Dec-15 13:28N 34°57' E 136°38'0 0.0
2017-Dec-15 12:58N 34°57' E 136°38'0 0.0
2017-Dec-15 12:28N 34°57' E 136°38'0 0.0
2017-Dec-15 11:58N 34°57' E 136°38'0 0.0
2017-Dec-15 11:28N 34°57' E 136°38'0 0.0
2017-Dec-15 10:55N 34°57' E 136°38'0 0.0
2017-Dec-15 10:28N 34°57' E 136°38'0 0.0
2017-Dec-15 09:58N 34°57' E 136°38'0 0.0
2017-Dec-15 09:28N 34°57' E 136°38'0 0.0
2017-Dec-15 08:58N 34°57' E 136°38'0 0.0
2017-Dec-15 08:30N 34°57' E 136°38'2 5.0
2017-Dec-15 08:00N 34°56' E 136°41'0 0.2
2017-Dec-15 07:29N 34°56' E 136°41'0 0.1
2017-Dec-15 06:59N 34°56' E 136°41'0 0.1
2017-Dec-15 06:31N 34°56' E 136°41'0 0.0
2017-Dec-15 06:00N 34°56' E 136°41'0 0.1
2017-Dec-15 05:31N 34°56' E 136°41'0 0.4
2017-Dec-15 05:00N 34°56' E 136°41'612.5
2017-Dec-15 04:30N 34°51' E 136°45'3 6.8
2017-Dec-15 04:00N 34°51' E 136°50'0 0.2
2017-Dec-15 02:28N 34°51' E 136°49'0 0.0
2017-Dec-15 00:58N 34°51' E 136°49'0 0.0
2017-Dec-15 00:28N 34°51' E 136°49'7 1.2
2017-Dec-14 18:29N 34°56' E 136°43'0 0.0
2017-Dec-14 17:59N 34°56' E 136°43'0 0.0
2017-Dec-14 17:29N 34°56' E 136°43'0 0.0
2017-Dec-14 16:59N 34°56' E 136°43'0 0.0
2017-Dec-14 16:29N 34°56' E 136°43'4 8.1
2017-Dec-14 16:00N 34°57' E 136°39'0 0.0
2017-Dec-14 15:00N 34°57' E 136°38'0 0.0
2017-Dec-14 14:27N 34°57' E 136°38'0 0.0
2017-Dec-14 14:00N 34°57' E 136°38'0 0.0
2017-Dec-14 13:30N 34°57' E 136°38'0 0.0
2017-Dec-14 12:57N 34°57' E 136°38'0 0.0
2017-Dec-14 12:27N 34°57' E 136°38'0 0.0
2017-Dec-14 12:00N 34°57' E 136°38'0 0.0
2017-Dec-14 11:30N 34°57' E 136°38'0 0.0
2017-Dec-14 11:00N 34°57' E 136°38'0 0.0
2017-Dec-14 10:27N 34°57' E 136°38'0 0.0
2017-Dec-14 10:00N 34°57' E 136°38'0 0.0
2017-Dec-14 09:30N 34°57' E 136°38'0 0.0
2017-Dec-14 09:00N 34°57' E 136°38'0 0.0
2017-Dec-14 08:27N 34°57' E 136°38'0 0.1
2017-Dec-14 08:00N 34°57' E 136°39'3 5.0
2017-Dec-14 07:30N 34°58' E 136°41'1 2.7
2017-Dec-14 06:59N 34°56' E 136°41'0 0.0
2017-Dec-14 06:26N 34°56' E 136°41'0 0.0
2017-Dec-14 05:59N 34°56' E 136°41'0 0.0
2017-Dec-14 05:29N 34°56' E 136°41'0 0.0
2017-Dec-14 04:59N 34°56' E 136°41'0 0.1
2017-Dec-14 04:29N 34°56' E 136°41'0 0.1
2017-Dec-14 03:59N 34°56' E 136°41'0 0.0
2017-Dec-14 03:29N 34°56' E 136°41'0 0.0
2017-Dec-14 02:59N 34°56' E 136°41'0 0.0
2017-Dec-14 02:29N 34°56' E 136°41'0 0.0
2017-Dec-14 01:59N 34°56' E 136°41'0 0.0
2017-Dec-14 01:29N 34°56' E 136°41'0 0.0
2017-Dec-14 00:59N 34°56' E 136°41'0 0.0
2017-Dec-14 00:29N 34°56' E 136°41'0 0.0
2017-Dec-13 23:56N 34°56' E 136°41'0 0.0
2017-Dec-13 23:23N 34°56' E 136°41'0 0.0
2017-Dec-13 22:59N 34°56' E 136°41'0 0.0
2017-Dec-13 22:29N 34°56' E 136°41'0 0.0
2017-Dec-13 21:59N 34°56' E 136°41'0 0.0
2017-Dec-13 21:29N 34°56' E 136°41'0 0.0
2017-Dec-13 20:59N 34°56' E 136°41'0 0.0
2017-Dec-13 20:29N 34°56' E 136°41'0 0.0
2017-Dec-13 19:59N 34°56' E 136°41'2 5.0
2017-Dec-13 19:30N 34°54' E 136°43'612.6
2017-Dec-13 19:00N 34°49' E 136°46'612.5
2017-Dec-13 18:30N 34°43' E 136°50'2011.2
2017-Dec-13 16:44N 34°34' E 137°11'312.6
2017-Dec-13 16:30N 34°35' E 137°15'2611.7
2017-Dec-13 14:16N 34°37' E 137°46'310.9
2017-Dec-13 13:59N 34°36' E 137°50'510.8
2017-Dec-13 13:28N 34°36' E 137°57'611.0
2017-Dec-13 12:53N 34°35' E 138°05'510.9
2017-Dec-13 12:23N 34°34' E 138°11'410.5
2017-Dec-13 12:00N 34°34' E 138°16'611.1
2017-Dec-13 11:28N 34°37' E 138°23'510.5
2017-Dec-13 11:00N 34°37' E 138°28'510.0
2017-Dec-13 10:27N 34°36' E 138°35'5 9.9
2017-Dec-13 10:00N 34°36' E 138°41'4 8.8
2017-Dec-13 09:30N 34°36' E 138°46'3 6.5
2017-Dec-13 09:00N 34°35' E 138°50'4 7.5
2017-Dec-13 08:30N 34°36' E 138°54'3 6.9
2017-Dec-13 08:00N 34°37' E 138°58'611.4
2017-Dec-13 07:30N 34°41' E 139°03'712.9
2017-Dec-13 07:00N 34°47' E 139°07'713.3
2017-Dec-13 06:27N 34°52' E 139°13'612.9
2017-Dec-13 06:00N 34°56' E 139°18'713.1
2017-Dec-13 05:30N 34°60' E 139°25'713.1
2017-Dec-13 05:00N 35°03' E 139°32'713.6
2017-Dec-13 04:30N 35°06' E 139°39'713.3
2017-Dec-13 04:00N 35°11' E 139°45'612.4
2017-Dec-13 03:30N 35°17' E 139°45'612.8
2017-Dec-13 03:00N 35°23' E 139°42'713.4
2017-Dec-13 02:30N 35°28' E 139°47'4 6.9
2017-Dec-13 01:58N 35°32' E 139°48'0 0.0
2017-Dec-13 01:28N 35°32' E 139°48'0 0.0
2017-Dec-13 00:58N 35°32' E 139°48'0 0.0
2017-Dec-13 00:28N 35°32' E 139°48'0 0.0
2017-Dec-12 23:58N 35°32' E 139°48'0 0.0
2017-Dec-12 23:19N 35°32' E 139°48'0 0.0
2017-Dec-12 22:58N 35°32' E 139°48'0 0.1
2017-Dec-12 22:31N 35°32' E 139°48'2 4.1
2017-Dec-12 22:01N 35°31' E 139°50'0 0.1
2017-Dec-12 21:20N 35°31' E 139°50'0 0.0
2017-Dec-12 20:56N 35°31' E 139°50'0 0.0
2017-Dec-12 20:26N 35°31' E 139°50'0 0.5
2017-Dec-12 20:00N 35°31' E 139°50'511.0
2017-Dec-12 19:30N 35°26' E 139°47'611.5
2017-Dec-12 19:00N 35°21' E 139°45'5 9.2
2017-Dec-12 18:31N 35°16' E 139°46'611.4
2017-Dec-12 18:00N 35°11' E 139°46'612.1
2017-Dec-12 17:30N 35°05' E 139°44'612.0
2017-Dec-12 17:00N 35°01' E 139°38'612.9
2017-Dec-12 16:30N 34°57' E 139°32'713.6
2017-Dec-12 16:00N 34°53' E 139°25'714.1
2017-Dec-12 15:31N 34°49' E 139°19'713.1
2017-Dec-12 14:59N 34°44' E 139°13'712.6
2017-Dec-12 14:27N 34°40' E 139°06'611.8
2017-Dec-12 13:58N 34°36' E 139°01'611.9
2017-Dec-12 13:30N 34°33' E 138°56'713.3
2017-Dec-12 13:00N 34°33' E 138°48'713.3
2017-Dec-12 12:28N 34°33' E 138°39'713.1
2017-Dec-12 11:54N 34°32' E 138°30'712.8
2017-Dec-12 11:22N 34°33' E 138°22'512.3
2017-Dec-12 10:59N 34°33' E 138°16'1313.1
2017-Dec-12 09:58N 34°36' E 138°00'3313.3
2017-Dec-12 07:28N 34°36' E 137°20'613.1
2017-Dec-12 07:00N 34°34' E 137°13'1511.9
2017-Dec-12 05:44N 34°37' E 136°55'312.4
2017-Dec-12 05:30N 34°39' E 136°52'612.2
2017-Dec-12 05:00N 34°44' E 136°47'611.9
2017-Dec-12 04:30N 34°49' E 136°44'510.7
2017-Dec-12 04:00N 34°54' E 136°41'0 0.2
2017-Dec-12 03:25N 34°54' E 136°41'0 0.0
2017-Dec-12 02:58N 34°54' E 136°41'0 0.0
2017-Dec-12 02:25N 34°54' E 136°41'0 0.0
2017-Dec-12 01:58N 34°54' E 136°41'0 0.0
2017-Dec-12 01:28N 34°54' E 136°41'0 0.0
2017-Dec-12 00:58N 34°54' E 136°41'0 0.0
2017-Dec-12 00:25N 34°54' E 136°41'0 0.0
2017-Dec-11 23:55N 34°54' E 136°41'0 0.0
2017-Dec-11 23:25N 34°54' E 136°41'0 0.0
2017-Dec-11 22:55N 34°54' E 136°41'0 0.0
2017-Dec-11 22:19N 34°54' E 136°41'0 0.0
2017-Dec-11 21:55N 34°54' E 136°41'0 0.0
2017-Dec-11 21:25N 34°54' E 136°41'0 0.0
2017-Dec-11 20:55N 34°54' E 136°41'0 0.0
2017-Dec-11 20:25N 34°54' E 136°41'0 0.0
2017-Dec-11 19:58N 34°54' E 136°41'0 0.0
2017-Dec-11 19:25N 34°54' E 136°41'0 0.0
2017-Dec-11 18:58N 34°54' E 136°41'0 0.0
2017-Dec-11 18:28N 34°54' E 136°41'0 0.0
2017-Dec-11 17:55N 34°54' E 136°41'0 0.0
2017-Dec-11 17:25N 34°54' E 136°41'0 0.0
2017-Dec-11 16:55N 34°54' E 136°41'0 0.1
2017-Dec-11 16:28N 34°54' E 136°41'0 0.0
2017-Dec-11 15:55N 34°54' E 136°41'0 0.0
2017-Dec-11 15:28N 34°54' E 136°41'0 0.0
2017-Dec-11 14:55N 34°54' E 136°41'0 0.0
2017-Dec-11 14:28N 34°54' E 136°41'0 0.0
2017-Dec-11 13:58N 34°54' E 136°41'0 0.0
2017-Dec-11 13:25N 34°54' E 136°41'0 0.0
2017-Dec-11 12:55N 34°54' E 136°41'0 0.0
2017-Dec-11 12:25N 34°54' E 136°41'0 0.0
2017-Dec-11 11:58N 34°54' E 136°41'0 0.0
2017-Dec-11 11:28N 34°54' E 136°41'0 0.0
2017-Dec-11 10:55N 34°54' E 136°41'0 0.0
2017-Dec-11 10:25N 34°54' E 136°41'0 0.0
2017-Dec-11 09:58N 34°54' E 136°41'0 0.0
2017-Dec-11 09:28N 34°54' E 136°41'0 0.0
2017-Dec-11 08:55N 34°54' E 136°41'0 0.0
2017-Dec-11 08:28N 34°54' E 136°41'3 6.5
2017-Dec-11 08:01N 34°57' E 136°41'2 3.1
2017-Dec-11 07:26N 34°57' E 136°38'0 0.0
2017-Dec-11 06:59N 34°57' E 136°38'0 0.0
2017-Dec-11 06:29N 34°57' E 136°38'0 0.0
2017-Dec-11 05:59N 34°57' E 136°38'0 0.0
2017-Dec-11 05:29N 34°57' E 136°38'0 0.0
2017-Dec-11 04:59N 34°57' E 136°38'0 0.0
2017-Dec-11 04:29N 34°57' E 136°38'0 0.0
2017-Dec-11 03:59N 34°57' E 136°38'0 0.0
2017-Dec-11 03:26N 34°57' E 136°38'0 0.0
2017-Dec-11 02:59N 34°57' E 136°38'0 0.0
2017-Dec-11 02:29N 34°57' E 136°38'0 0.0
2017-Dec-11 01:59N 34°57' E 136°38'0 0.0
2017-Dec-11 01:29N 34°57' E 136°38'0 0.0
2017-Dec-11 00:59N 34°57' E 136°38'0 0.0
2017-Dec-11 00:23N 34°57' E 136°38'0 0.0
2017-Dec-10 23:59N 34°57' E 136°38'0 0.0
2017-Dec-10 23:29N 34°57' E 136°38'0 0.0
2017-Dec-10 22:59N 34°57' E 136°38'0 0.0
2017-Dec-10 22:29N 34°57' E 136°38'3 5.4
2017-Dec-10 22:01N 34°56' E 136°41'0 0.4
2017-Dec-10 21:29N 34°56' E 136°41'0 0.0
2017-Dec-10 20:59N 34°56' E 136°41'0 0.0
2017-Dec-10 20:29N 34°56' E 136°41'0 0.0
2017-Dec-10 19:59N 34°56' E 136°41'0 0.0
2017-Dec-10 19:29N 34°56' E 136°41'0 0.0
2017-Dec-10 18:59N 34°56' E 136°41'0 0.0
2017-Dec-10 18:29N 34°56' E 136°41'3 7.0
2017-Dec-10 18:01N 34°53' E 136°43'713.0
2017-Dec-10 17:30N 34°48' E 136°47'612.7
2017-Dec-10 17:00N 34°42' E 136°51'1911.4
2017-Dec-10 15:19N 34°34' E 137°12'5112.7
2017-Dec-10 11:17N 34°32' E 138°14'1212.5
2017-Dec-10 10:20N 34°33' E 138°28'412.6
2017-Dec-10 10:00N 34°33' E 138°34'612.6
2017-Dec-10 09:30N 34°34' E 138°41'712.5
2017-Dec-10 08:58N 34°34' E 138°49'511.8
2017-Dec-10 08:30N 34°36' E 138°56'611.7
2017-Dec-10 07:58N 34°40' E 139°01'913.4
2017-Dec-10 07:19N 34°47' E 139°07'1012.7
2017-Dec-10 06:34N 34°55' E 139°14'112.8
2017-Dec-10 06:29N 34°55' E 139°15'612.5
2017-Dec-10 06:00N 34°58' E 139°21'611.0
2017-Dec-10 05:30N 35°01' E 139°28'611.4
2017-Dec-10 05:00N 35°03' E 139°34'611.4
2017-Dec-10 04:31N 35°06' E 139°40'611.7
2017-Dec-10 04:00N 35°10' E 139°45'611.9
2017-Dec-10 03:30N 35°16' E 139°46'613.0
2017-Dec-10 03:00N 35°22' E 139°42'612.8
2017-Dec-10 02:30N 35°27' E 139°47'5 9.2
2017-Dec-10 02:01N 35°32' E 139°48'0 0.0
2017-Dec-10 01:28N 35°32' E 139°48'0 0.0
2017-Dec-10 00:55N 35°32' E 139°48'0 0.0
2017-Dec-10 00:28N 35°32' E 139°48'0 0.0
2017-Dec-09 23:55N 35°32' E 139°48'0 0.0
2017-Dec-09 23:28N 35°32' E 139°48'0 0.0
2017-Dec-09 22:58N 35°32' E 139°48'0 0.1
2017-Dec-09 22:30N 35°32' E 139°48'2 4.2
2017-Dec-09 22:00N 35°31' E 139°50'0 0.1
2017-Dec-09 21:30N 35°31' E 139°50'0 0.0
2017-Dec-09 21:00N 35°31' E 139°50'0 0.0
2017-Dec-09 20:30N 35°31' E 139°50'0 0.1
2017-Dec-09 20:00N 35°31' E 139°50'0 0.0
2017-Dec-09 19:27N 35°31' E 139°50'0 0.0
2017-Dec-09 19:00N 35°31' E 139°50'0 0.0
2017-Dec-09 18:30N 35°31' E 139°50'0 0.0
2017-Dec-09 18:00N 35°31' E 139°50'0 0.1
2017-Dec-09 17:30N 35°31' E 139°50'0 0.1
2017-Dec-09 17:00N 35°31' E 139°50'0 0.0
2017-Dec-09 16:30N 35°31' E 139°50'0 0.0
2017-Dec-09 16:00N 35°31' E 139°50'0 0.0
2017-Dec-09 15:30N 35°31' E 139°50'0 0.0
2017-Dec-09 15:00N 35°31' E 139°50'0 0.0
2017-Dec-09 14:30N 35°31' E 139°50'0 0.1
2017-Dec-09 13:36N 35°31' E 139°50'0 0.0
2017-Dec-09 13:09N 35°31' E 139°50'0 0.0
2017-Dec-09 12:51N 35°31' E 139°50'1 3.4
2017-Dec-09 12:30N 35°31' E 139°52'612.1
2017-Dec-09 12:00N 35°30' E 139°59'2 2.7
2017-Dec-09 11:23N 35°29' E 140°01'0 0.0
2017-Dec-09 10:56N 35°29' E 140°01'0 0.0
2017-Dec-09 10:26N 35°29' E 140°01'0 0.0
2017-Dec-09 09:47N 35°29' E 140°01'0 0.0
2017-Dec-09 08:32N 35°29' E 140°01'0 0.0
2017-Dec-09 08:20N 35°29' E 140°01'0 0.0
2017-Dec-09 06:44N 35°29' E 140°01'0 0.0
2017-Dec-09 06:21N 35°29' E 140°01'1 4.3
2017-Dec-09 06:00N 35°30' E 139°60'510.8
2017-Dec-09 05:30N 35°35' E 140°03'2 3.3
2017-Dec-09 04:59N 35°36' E 140°05'0 0.0
2017-Dec-09 04:29N 35°36' E 140°05'0 0.0
2017-Dec-09 03:59N 35°36' E 140°05'0 0.0
2017-Dec-09 03:29N 35°36' E 140°05'0 0.0
2017-Dec-09 02:59N 35°36' E 140°05'0 0.0
2017-Dec-09 02:29N 35°36' E 140°05'0 0.0
2017-Dec-09 01:59N 35°36' E 140°05'0 0.0
2017-Dec-09 01:29N 35°36' E 140°05'0 0.0
2017-Dec-09 00:59N 35°36' E 140°05'0 0.0
2017-Dec-09 00:29N 35°36' E 140°05'0 0.0
2017-Dec-08 23:59N 35°36' E 140°05'0 0.0
2017-Dec-08 23:29N 35°36' E 140°05'1 2.6
2017-Dec-08 22:59N 35°35' E 140°03'0 0.1
2017-Dec-08 22:29N 35°35' E 140°03'0 0.0
2017-Dec-08 21:59N 35°35' E 140°03'  

Dump ship's entire track history